sensor_id;sensor_type;location;lat;lon;timestamp;P1;durP1;ratioP1;P2;durP2;ratioP2
73951;SDS011;62304;47.662;18.324;2023-05-07T00:00:43;8.30;;;4.37;;
73951;SDS011;62304;47.662;18.324;2023-05-07T00:03:46;8.82;;;4.78;;
73951;SDS011;62304;47.662;18.324;2023-05-07T00:06:50;10.98;;;4.50;;
73951;SDS011;62304;47.662;18.324;2023-05-07T00:09:53;8.52;;;4.10;;
73951;SDS011;62304;47.662;18.324;2023-05-07T00:12:56;8.60;;;4.57;;
73951;SDS011;62304;47.662;18.324;2023-05-07T00:16:00;9.30;;;4.40;;
73951;SDS011;62304;47.662;18.324;2023-05-07T00:19:04;9.07;;;4.50;;
73951;SDS011;62304;47.662;18.324;2023-05-07T00:22:07;10.35;;;5.20;;
73951;SDS011;62304;47.662;18.324;2023-05-07T00:25:12;9.20;;;4.62;;
73951;SDS011;62304;47.662;18.324;2023-05-07T00:28:16;7.83;;;4.40;;
73951;SDS011;62304;47.662;18.324;2023-05-07T00:31:19;10.57;;;5.10;;
73951;SDS011;62304;47.662;18.324;2023-05-07T00:34:22;11.75;;;5.40;;
73951;SDS011;62304;47.662;18.324;2023-05-07T00:37:25;14.18;;;6.82;;
73951;SDS011;62304;47.662;18.324;2023-05-07T00:40:28;9.27;;;5.22;;
73951;SDS011;62304;47.662;18.324;2023-05-07T00:43:30;9.60;;;5.17;;
73951;SDS011;62304;47.662;18.324;2023-05-07T00:46:34;11.57;;;5.67;;
73951;SDS011;62304;47.662;18.324;2023-05-07T00:49:42;10.30;;;5.00;;
73951;SDS011;62304;47.662;18.324;2023-05-07T00:52:46;7.78;;;4.30;;
73951;SDS011;62304;47.662;18.324;2023-05-07T00:55:49;8.70;;;4.60;;
73951;SDS011;62304;47.662;18.324;2023-05-07T00:58:53;8.87;;;5.10;;
73951;SDS011;62304;47.662;18.324;2023-05-07T01:01:55;9.43;;;4.80;;
73951;SDS011;62304;47.662;18.324;2023-05-07T01:04:59;9.77;;;5.12;;
73951;SDS011;62304;47.662;18.324;2023-05-07T01:08:03;11.07;;;5.47;;
73951;SDS011;62304;47.662;18.324;2023-05-07T01:11:08;14.77;;;6.10;;
73951;SDS011;62304;47.662;18.324;2023-05-07T01:14:13;9.63;;;5.77;;
73951;SDS011;62304;47.662;18.324;2023-05-07T01:17:16;11.90;;;6.00;;
73951;SDS011;62304;47.662;18.324;2023-05-07T01:20:20;12.95;;;6.40;;
73951;SDS011;62304;47.662;18.324;2023-05-07T01:23:26;11.50;;;5.65;;
73951;SDS011;62304;47.662;18.324;2023-05-07T01:26:30;12.13;;;6.60;;
73951;SDS011;62304;47.662;18.324;2023-05-07T01:29:33;11.73;;;7.23;;
73951;SDS011;62304;47.662;18.324;2023-05-07T01:32:59;13.13;;;6.77;;
73951;SDS011;62304;47.662;18.324;2023-05-07T01:36:04;11.73;;;6.70;;
73951;SDS011;62304;47.662;18.324;2023-05-07T01:39:09;10.70;;;6.90;;
73951;SDS011;62304;47.662;18.324;2023-05-07T01:42:13;11.10;;;6.45;;
73951;SDS011;62304;47.662;18.324;2023-05-07T01:45:16;12.00;;;7.23;;
73951;SDS011;62304;47.662;18.324;2023-05-07T01:48:20;12.57;;;7.50;;
73951;SDS011;62304;47.662;18.324;2023-05-07T01:51:23;12.35;;;7.45;;
73951;SDS011;62304;47.662;18.324;2023-05-07T01:54:26;12.02;;;6.93;;
73951;SDS011;62304;47.662;18.324;2023-05-07T01:57:30;11.27;;;7.18;;
73951;SDS011;62304;47.662;18.324;2023-05-07T02:00:33;11.70;;;7.13;;
73951;SDS011;62304;47.662;18.324;2023-05-07T02:03:41;9.97;;;6.27;;
73951;SDS011;62304;47.662;18.324;2023-05-07T02:06:46;10.02;;;6.65;;
73951;SDS011;62304;47.662;18.324;2023-05-07T02:09:50;11.80;;;7.12;;
73951;SDS011;62304;47.662;18.324;2023-05-07T02:12:52;11.85;;;7.10;;
73951;SDS011;62304;47.662;18.324;2023-05-07T02:15:56;10.73;;;6.93;;
73951;SDS011;62304;47.662;18.324;2023-05-07T02:19:00;12.33;;;6.80;;
73951;SDS011;62304;47.662;18.324;2023-05-07T02:22:03;10.88;;;6.87;;
73951;SDS011;62304;47.662;18.324;2023-05-07T02:25:07;12.65;;;6.72;;
73951;SDS011;62304;47.662;18.324;2023-05-07T02:28:10;12.02;;;6.75;;
73951;SDS011;62304;47.662;18.324;2023-05-07T02:31:13;13.03;;;7.13;;
73951;SDS011;62304;47.662;18.324;2023-05-07T02:34:16;10.03;;;6.40;;
73951;SDS011;62304;47.662;18.324;2023-05-07T02:37:20;10.85;;;7.05;;
73951;SDS011;62304;47.662;18.324;2023-05-07T02:40:23;9.88;;;6.43;;
73951;SDS011;62304;47.662;18.324;2023-05-07T02:43:26;11.30;;;6.60;;
73951;SDS011;62304;47.662;18.324;2023-05-07T02:46:30;8.83;;;6.07;;
73951;SDS011;62304;47.662;18.324;2023-05-07T02:49:33;13.43;;;7.10;;
73951;SDS011;62304;47.662;18.324;2023-05-07T02:52:36;11.25;;;6.75;;
73951;SDS011;62304;47.662;18.324;2023-05-07T02:55:39;12.77;;;6.72;;
73951;SDS011;62304;47.662;18.324;2023-05-07T02:58:42;11.98;;;6.90;;
73951;SDS011;62304;47.662;18.324;2023-05-07T03:01:45;10.93;;;6.50;;
73951;SDS011;62304;47.662;18.324;2023-05-07T03:04:49;10.30;;;6.70;;
73951;SDS011;62304;47.662;18.324;2023-05-07T03:07:55;12.73;;;6.57;;
73951;SDS011;62304;47.662;18.324;2023-05-07T03:10:58;11.57;;;6.35;;
73951;SDS011;62304;47.662;18.324;2023-05-07T03:14:01;11.57;;;6.03;;
73951;SDS011;62304;47.662;18.324;2023-05-07T03:17:05;10.17;;;6.70;;
73951;SDS011;62304;47.662;18.324;2023-05-07T03:20:08;12.63;;;7.13;;
73951;SDS011;62304;47.662;18.324;2023-05-07T03:23:12;11.63;;;6.80;;
73951;SDS011;62304;47.662;18.324;2023-05-07T03:26:16;9.52;;;5.85;;
73951;SDS011;62304;47.662;18.324;2023-05-07T03:29:19;10.80;;;6.80;;
73951;SDS011;62304;47.662;18.324;2023-05-07T03:32:22;13.57;;;7.03;;
73951;SDS011;62304;47.662;18.324;2023-05-07T03:35:25;11.90;;;6.13;;
73951;SDS011;62304;47.662;18.324;2023-05-07T03:38:28;12.20;;;6.70;;
73951;SDS011;62304;47.662;18.324;2023-05-07T03:41:32;10.75;;;6.50;;
73951;SDS011;62304;47.662;18.324;2023-05-07T03:44:35;10.50;;;6.53;;
73951;SDS011;62304;47.662;18.324;2023-05-07T03:47:41;11.13;;;6.73;;
73951;SDS011;62304;47.662;18.324;2023-05-07T03:50:46;12.57;;;7.60;;
73951;SDS011;62304;47.662;18.324;2023-05-07T03:53:50;11.80;;;7.32;;
73951;SDS011;62304;47.662;18.324;2023-05-07T03:56:55;11.43;;;6.15;;
73951;SDS011;62304;47.662;18.324;2023-05-07T03:59:58;12.05;;;6.95;;
73951;SDS011;62304;47.662;18.324;2023-05-07T04:03:01;10.60;;;6.43;;
73951;SDS011;62304;47.662;18.324;2023-05-07T04:06:04;14.63;;;7.03;;
73951;SDS011;62304;47.662;18.324;2023-05-07T04:09:08;12.07;;;6.70;;
73951;SDS011;62304;47.662;18.324;2023-05-07T04:12:12;12.45;;;7.18;;
73951;SDS011;62304;47.662;18.324;2023-05-07T04:15:15;12.82;;;6.82;;
73951;SDS011;62304;47.662;18.324;2023-05-07T04:18:18;11.40;;;7.03;;
73951;SDS011;62304;47.662;18.324;2023-05-07T04:21:22;13.23;;;6.80;;
73951;SDS011;62304;47.662;18.324;2023-05-07T04:24:26;12.70;;;6.03;;
73951;SDS011;62304;47.662;18.324;2023-05-07T04:27:29;10.30;;;6.60;;
73951;SDS011;62304;47.662;18.324;2023-05-07T04:30:32;12.23;;;7.12;;
73951;SDS011;62304;47.662;18.324;2023-05-07T04:33:36;12.93;;;7.50;;
73951;SDS011;62304;47.662;18.324;2023-05-07T04:36:40;11.73;;;6.77;;
73951;SDS011;62304;47.662;18.324;2023-05-07T04:39:44;12.48;;;7.57;;
73951;SDS011;62304;47.662;18.324;2023-05-07T04:42:48;13.90;;;7.25;;
73951;SDS011;62304;47.662;18.324;2023-05-07T04:45:51;11.98;;;7.60;;
73951;SDS011;62304;47.662;18.324;2023-05-07T04:48:55;14.10;;;7.37;;
73951;SDS011;62304;47.662;18.324;2023-05-07T04:51:58;13.33;;;7.43;;
73951;SDS011;62304;47.662;18.324;2023-05-07T04:55:01;12.30;;;7.75;;
73951;SDS011;62304;47.662;18.324;2023-05-07T04:58:07;13.02;;;8.18;;
73951;SDS011;62304;47.662;18.324;2023-05-07T05:01:11;14.52;;;8.15;;
73951;SDS011;62304;47.662;18.324;2023-05-07T05:04:14;15.10;;;9.20;;
73951;SDS011;62304;47.662;18.324;2023-05-07T05:07:17;16.70;;;9.70;;
73951;SDS011;62304;47.662;18.324;2023-05-07T05:10:20;17.52;;;11.15;;
73951;SDS011;62304;47.662;18.324;2023-05-07T05:13:26;15.38;;;9.73;;
73951;SDS011;62304;47.662;18.324;2023-05-07T05:16:29;13.90;;;9.13;;
73951;SDS011;62304;47.662;18.324;2023-05-07T05:19:32;15.03;;;9.17;;
73951;SDS011;62304;47.662;18.324;2023-05-07T05:22:35;15.63;;;8.03;;
73951;SDS011;62304;47.662;18.324;2023-05-07T05:25:39;10.35;;;6.95;;
73951;SDS011;62304;47.662;18.324;2023-05-07T05:28:42;10.65;;;6.82;;
73951;SDS011;62304;47.662;18.324;2023-05-07T05:31:46;12.20;;;7.47;;
73951;SDS011;62304;47.662;18.324;2023-05-07T05:34:49;14.43;;;7.67;;
73951;SDS011;62304;47.662;18.324;2023-05-07T05:37:52;11.97;;;7.50;;
73951;SDS011;62304;47.662;18.324;2023-05-07T05:40:55;10.98;;;7.55;;
73951;SDS011;62304;47.662;18.324;2023-05-07T05:43:58;14.52;;;8.52;;
73951;SDS011;62304;47.662;18.324;2023-05-07T05:47:02;12.60;;;7.70;;
73951;SDS011;62304;47.662;18.324;2023-05-07T05:50:06;10.90;;;7.00;;
73951;SDS011;62304;47.662;18.324;2023-05-07T05:53:10;10.20;;;6.60;;
73951;SDS011;62304;47.662;18.324;2023-05-07T05:56:13;11.32;;;7.35;;
73951;SDS011;62304;47.662;18.324;2023-05-07T05:59:17;11.80;;;7.85;;
73951;SDS011;62304;47.662;18.324;2023-05-07T06:02:21;15.60;;;8.85;;
73951;SDS011;62304;47.662;18.324;2023-05-07T06:05:25;13.47;;;9.00;;
73951;SDS011;62304;47.662;18.324;2023-05-07T06:08:29;13.53;;;9.13;;
73951;SDS011;62304;47.662;18.324;2023-05-07T06:11:32;14.38;;;9.38;;
73951;SDS011;62304;47.662;18.324;2023-05-07T06:14:35;15.20;;;9.30;;
73951;SDS011;62304;47.662;18.324;2023-05-07T06:17:39;15.13;;;9.27;;
73951;SDS011;62304;47.662;18.324;2023-05-07T06:20:43;13.87;;;9.33;;
73951;SDS011;62304;47.662;18.324;2023-05-07T06:23:47;17.17;;;9.90;;
73951;SDS011;62304;47.662;18.324;2023-05-07T06:26:50;17.37;;;9.93;;
73951;SDS011;62304;47.662;18.324;2023-05-07T06:29:53;16.45;;;9.95;;
73951;SDS011;62304;47.662;18.324;2023-05-07T06:32:56;15.70;;;10.18;;
73951;SDS011;62304;47.662;18.324;2023-05-07T06:36:00;14.83;;;10.00;;
73951;SDS011;62304;47.662;18.324;2023-05-07T06:39:04;15.27;;;9.63;;
73951;SDS011;62304;47.662;18.324;2023-05-07T06:42:07;14.32;;;9.85;;
73951;SDS011;62304;47.662;18.324;2023-05-07T06:45:14;17.60;;;11.93;;
73951;SDS011;62304;47.662;18.324;2023-05-07T06:48:18;16.80;;;10.82;;
73951;SDS011;62304;47.662;18.324;2023-05-07T06:51:21;17.80;;;11.77;;
73951;SDS011;62304;47.662;18.324;2023-05-07T06:54:25;18.53;;;12.67;;
73951;SDS011;62304;47.662;18.324;2023-05-07T06:57:28;21.65;;;12.90;;
73951;SDS011;62304;47.662;18.324;2023-05-07T07:00:31;19.25;;;12.60;;
73951;SDS011;62304;47.662;18.324;2023-05-07T07:03:34;18.10;;;11.77;;
73951;SDS011;62304;47.662;18.324;2023-05-07T07:06:37;17.87;;;11.80;;
73951;SDS011;62304;47.662;18.324;2023-05-07T07:09:44;16.73;;;11.70;;
73951;SDS011;62304;47.662;18.324;2023-05-07T07:12:48;18.30;;;12.13;;
73951;SDS011;62304;47.662;18.324;2023-05-07T07:15:52;18.30;;;12.95;;
73951;SDS011;62304;47.662;18.324;2023-05-07T07:18:56;19.23;;;13.05;;
73951;SDS011;62304;47.662;18.324;2023-05-07T07:21:59;21.40;;;14.20;;
73951;SDS011;62304;47.662;18.324;2023-05-07T07:25:02;18.87;;;13.13;;
73951;SDS011;62304;47.662;18.324;2023-05-07T07:28:05;19.58;;;13.35;;
73951;SDS011;62304;47.662;18.324;2023-05-07T07:31:11;19.30;;;12.55;;
73951;SDS011;62304;47.662;18.324;2023-05-07T07:34:14;19.40;;;13.40;;
73951;SDS011;62304;47.662;18.324;2023-05-07T07:37:18;21.67;;;14.97;;
73951;SDS011;62304;47.662;18.324;2023-05-07T07:40:21;25.57;;;16.03;;
73951;SDS011;62304;47.662;18.324;2023-05-07T07:43:24;23.50;;;15.80;;
73951;SDS011;62304;47.662;18.324;2023-05-07T07:46:27;25.83;;;16.75;;
73951;SDS011;62304;47.662;18.324;2023-05-07T07:49:31;23.98;;;15.82;;
73951;SDS011;62304;47.662;18.324;2023-05-07T07:52:34;26.00;;;16.83;;
73951;SDS011;62304;47.662;18.324;2023-05-07T07:55:38;26.93;;;17.03;;
73951;SDS011;62304;47.662;18.324;2023-05-07T07:58:43;27.40;;;17.27;;
73951;SDS011;62304;47.662;18.324;2023-05-07T08:01:47;26.30;;;18.10;;
73951;SDS011;62304;47.662;18.324;2023-05-07T08:04:56;25.65;;;17.25;;
73951;SDS011;62304;47.662;18.324;2023-05-07T08:08:00;26.60;;;18.10;;
73951;SDS011;62304;47.662;18.324;2023-05-07T08:11:04;27.63;;;17.63;;
73951;SDS011;62304;47.662;18.324;2023-05-07T08:14:07;26.85;;;17.60;;
73951;SDS011;62304;47.662;18.324;2023-05-07T08:17:11;25.67;;;17.95;;
73951;SDS011;62304;47.662;18.324;2023-05-07T08:20:15;24.45;;;16.83;;
73951;SDS011;62304;47.662;18.324;2023-05-07T08:23:18;25.17;;;17.90;;
73951;SDS011;62304;47.662;18.324;2023-05-07T08:26:22;28.53;;;18.03;;
73951;SDS011;62304;47.662;18.324;2023-05-07T08:29:25;23.15;;;16.80;;
73951;SDS011;62304;47.662;18.324;2023-05-07T08:32:28;23.77;;;17.87;;
73951;SDS011;62304;47.662;18.324;2023-05-07T08:35:32;25.00;;;17.52;;
73951;SDS011;62304;47.662;18.324;2023-05-07T08:38:35;24.67;;;16.70;;
73951;SDS011;62304;47.662;18.324;2023-05-07T08:41:38;19.83;;;14.83;;
73951;SDS011;62304;47.662;18.324;2023-05-07T08:44:42;22.50;;;16.10;;
73951;SDS011;62304;47.662;18.324;2023-05-07T08:47:55;20.50;;;14.32;;
73951;SDS011;62304;47.662;18.324;2023-05-07T08:51:03;21.35;;;14.82;;
73951;SDS011;62304;47.662;18.324;2023-05-07T08:54:06;20.47;;;15.03;;
73951;SDS011;62304;47.662;18.324;2023-05-07T08:57:10;19.77;;;14.67;;
73951;SDS011;62304;47.662;18.324;2023-05-07T09:00:14;21.05;;;15.40;;
73951;SDS011;62304;47.662;18.324;2023-05-07T09:03:19;20.62;;;14.90;;
73951;SDS011;62304;47.662;18.324;2023-05-07T09:06:23;19.35;;;14.13;;
73951;SDS011;62304;47.662;18.324;2023-05-07T09:09:26;18.37;;;13.27;;
73951;SDS011;62304;47.662;18.324;2023-05-07T09:12:30;18.67;;;13.37;;
73951;SDS011;62304;47.662;18.324;2023-05-07T09:15:33;16.92;;;11.60;;
73951;SDS011;62304;47.662;18.324;2023-05-07T09:18:43;15.48;;;11.45;;
73951;SDS011;62304;47.662;18.324;2023-05-07T09:21:47;17.60;;;13.05;;
73951;SDS011;62304;47.662;18.324;2023-05-07T09:24:51;17.97;;;13.10;;
73951;SDS011;62304;47.662;18.324;2023-05-07T09:27:55;16.87;;;13.30;;
73951;SDS011;62304;47.662;18.324;2023-05-07T09:30:58;16.08;;;12.02;;
73951;SDS011;62304;47.662;18.324;2023-05-07T09:34:01;17.08;;;12.43;;
73951;SDS011;62304;47.662;18.324;2023-05-07T09:37:05;18.17;;;12.90;;
73951;SDS011;62304;47.662;18.324;2023-05-07T09:40:19;15.47;;;12.17;;
73951;SDS011;62304;47.662;18.324;2023-05-07T09:43:27;16.83;;;12.47;;
73951;SDS011;62304;47.662;18.324;2023-05-07T09:46:38;15.68;;;12.25;;
73951;SDS011;62304;47.662;18.324;2023-05-07T09:49:48;14.50;;;12.10;;
73951;SDS011;62304;47.662;18.324;2023-05-07T09:52:53;14.40;;;11.12;;
73951;SDS011;62304;47.662;18.324;2023-05-07T09:55:58;15.47;;;12.00;;
73951;SDS011;62304;47.662;18.324;2023-05-07T09:59:05;12.23;;;9.83;;
73951;SDS011;62304;47.662;18.324;2023-05-07T10:02:10;14.48;;;10.70;;
73951;SDS011;62304;47.662;18.324;2023-05-07T10:05:21;13.50;;;10.25;;
73951;SDS011;62304;47.662;18.324;2023-05-07T10:08:25;12.32;;;9.30;;
73951;SDS011;62304;47.662;18.324;2023-05-07T10:11:29;12.60;;;9.97;;
73951;SDS011;62304;47.662;18.324;2023-05-07T10:14:35;11.80;;;10.03;;
73951;SDS011;62304;47.662;18.324;2023-05-07T10:17:40;10.65;;;7.68;;
73951;SDS011;62304;47.662;18.324;2023-05-07T10:20:44;10.43;;;7.82;;
73951;SDS011;62304;47.662;18.324;2023-05-07T10:23:59;7.68;;;6.07;;
73951;SDS011;62304;47.662;18.324;2023-05-07T10:27:11;7.67;;;5.70;;
73951;SDS011;62304;47.662;18.324;2023-05-07T10:33:51;7.50;;;4.80;;
73951;SDS011;62304;47.662;18.324;2023-05-07T10:36:56;7.80;;;5.47;;
73951;SDS011;62304;47.662;18.324;2023-05-07T10:39:59;8.15;;;5.30;;
73951;SDS011;62304;47.662;18.324;2023-05-07T10:43:05;9.43;;;5.63;;
73951;SDS011;62304;47.662;18.324;2023-05-07T10:46:14;6.90;;;4.67;;
73951;SDS011;62304;47.662;18.324;2023-05-07T10:49:18;6.70;;;5.10;;
73951;SDS011;62304;47.662;18.324;2023-05-07T10:52:26;7.10;;;5.05;;
73951;SDS011;62304;47.662;18.324;2023-05-07T10:55:30;7.03;;;5.15;;
73951;SDS011;62304;47.662;18.324;2023-05-07T10:58:33;7.00;;;4.53;;
73951;SDS011;62304;47.662;18.324;2023-05-07T11:01:50;7.47;;;4.80;;
73951;SDS011;62304;47.662;18.324;2023-05-07T11:05:43;7.07;;;4.70;;
73951;SDS011;62304;47.662;18.324;2023-05-07T11:08:25;5.93;;;4.40;;
73951;SDS011;62304;47.662;18.324;2023-05-07T11:11:47;6.55;;;4.53;;
73951;SDS011;62304;47.662;18.324;2023-05-07T11:14:55;7.57;;;3.77;;
73951;SDS011;62304;47.662;18.324;2023-05-07T11:18:00;6.60;;;4.67;;
73951;SDS011;62304;47.662;18.324;2023-05-07T11:21:04;6.65;;;4.50;;
73951;SDS011;62304;47.662;18.324;2023-05-07T11:24:09;7.82;;;4.22;;
73951;SDS011;62304;47.662;18.324;2023-05-07T11:27:14;7.07;;;4.57;;
73951;SDS011;62304;47.662;18.324;2023-05-07T11:30:25;6.40;;;4.77;;
73951;SDS011;62304;47.662;18.324;2023-05-07T11:33:29;7.77;;;5.37;;
73951;SDS011;62304;47.662;18.324;2023-05-07T11:36:34;7.80;;;5.62;;
73951;SDS011;62304;47.662;18.324;2023-05-07T11:39:38;9.15;;;5.82;;
73951;SDS011;62304;47.662;18.324;2023-05-07T11:42:41;10.20;;;7.30;;
73951;SDS011;62304;47.662;18.324;2023-05-07T11:45:47;9.90;;;7.47;;
73951;SDS011;62304;47.662;18.324;2023-05-07T11:48:51;9.47;;;5.47;;
73951;SDS011;62304;47.662;18.324;2023-05-07T11:51:54;9.65;;;7.28;;
73951;SDS011;62304;47.662;18.324;2023-05-07T11:54:57;10.40;;;6.85;;
73951;SDS011;62304;47.662;18.324;2023-05-07T11:58:02;10.18;;;6.57;;
73951;SDS011;62304;47.662;18.324;2023-05-07T12:01:07;8.90;;;6.33;;
73951;SDS011;62304;47.662;18.324;2023-05-07T12:04:12;9.97;;;7.07;;
73951;SDS011;62304;47.662;18.324;2023-05-07T12:07:15;9.20;;;6.72;;
73951;SDS011;62304;47.662;18.324;2023-05-07T12:10:18;10.77;;;6.93;;
73951;SDS011;62304;47.662;18.324;2023-05-07T12:13:23;9.45;;;6.87;;
73951;SDS011;62304;47.662;18.324;2023-05-07T12:16:28;9.50;;;7.10;;
73951;SDS011;62304;47.662;18.324;2023-05-07T12:19:31;9.70;;;6.43;;
73951;SDS011;62304;47.662;18.324;2023-05-07T12:22:36;9.52;;;6.45;;
73951;SDS011;62304;47.662;18.324;2023-05-07T12:25:40;8.27;;;5.62;;
73951;SDS011;62304;47.662;18.324;2023-05-07T12:28:49;7.78;;;6.15;;
73951;SDS011;62304;47.662;18.324;2023-05-07T12:31:52;9.20;;;6.27;;
73951;SDS011;62304;47.662;18.324;2023-05-07T12:34:55;8.13;;;6.40;;
73951;SDS011;62304;47.662;18.324;2023-05-07T12:37:58;8.05;;;5.62;;
73951;SDS011;62304;47.662;18.324;2023-05-07T12:41:07;7.80;;;5.43;;
73951;SDS011;62304;47.662;18.324;2023-05-07T12:44:12;8.10;;;5.80;;
73951;SDS011;62304;47.662;18.324;2023-05-07T12:47:17;8.40;;;4.77;;
73951;SDS011;62304;47.662;18.324;2023-05-07T12:50:20;6.70;;;4.40;;
73951;SDS011;62304;47.662;18.324;2023-05-07T12:53:24;7.22;;;4.47;;
73951;SDS011;62304;47.662;18.324;2023-05-07T12:56:30;6.95;;;4.90;;
73951;SDS011;62304;47.662;18.324;2023-05-07T12:59:37;8.98;;;4.90;;
73951;SDS011;62304;47.662;18.324;2023-05-07T13:02:44;6.50;;;4.33;;
73951;SDS011;62304;47.662;18.324;2023-05-07T13:05:48;7.87;;;4.30;;
73951;SDS011;62304;47.662;18.324;2023-05-07T13:08:52;8.93;;;4.50;;
73951;SDS011;62304;47.662;18.324;2023-05-07T13:11:56;7.20;;;3.87;;
73951;SDS011;62304;47.662;18.324;2023-05-07T13:14:58;6.43;;;4.03;;
73951;SDS011;62304;47.662;18.324;2023-05-07T13:18:01;6.87;;;4.63;;
73951;SDS011;62304;47.662;18.324;2023-05-07T13:21:05;6.33;;;4.70;;
73951;SDS011;62304;47.662;18.324;2023-05-07T13:24:08;8.80;;;4.62;;
73951;SDS011;62304;47.662;18.324;2023-05-07T13:27:11;7.18;;;4.22;;
73951;SDS011;62304;47.662;18.324;2023-05-07T13:30:14;7.47;;;4.57;;
73951;SDS011;62304;47.662;18.324;2023-05-07T13:33:16;6.27;;;3.87;;
73951;SDS011;62304;47.662;18.324;2023-05-07T13:36:20;4.90;;;3.57;;
73951;SDS011;62304;47.662;18.324;2023-05-07T13:39:23;5.95;;;3.62;;
73951;SDS011;62304;47.662;18.324;2023-05-07T13:42:27;5.93;;;3.65;;
73951;SDS011;62304;47.662;18.324;2023-05-07T13:45:29;6.78;;;4.18;;
73951;SDS011;62304;47.662;18.324;2023-05-07T13:48:33;5.57;;;4.00;;
73951;SDS011;62304;47.662;18.324;2023-05-07T13:51:35;6.17;;;4.30;;
73951;SDS011;62304;47.662;18.324;2023-05-07T13:54:38;6.72;;;4.45;;
73951;SDS011;62304;47.662;18.324;2023-05-07T13:57:41;7.55;;;4.40;;
73951;SDS011;62304;47.662;18.324;2023-05-07T14:00:44;7.03;;;4.47;;
73951;SDS011;62304;47.662;18.324;2023-05-07T14:03:47;6.60;;;4.93;;
73951;SDS011;62304;47.662;18.324;2023-05-07T14:06:51;7.83;;;5.33;;
73951;SDS011;62304;47.662;18.324;2023-05-07T14:09:54;7.10;;;4.40;;
73951;SDS011;62304;47.662;18.324;2023-05-07T14:12:57;7.05;;;4.32;;
73951;SDS011;62304;47.662;18.324;2023-05-07T14:16:00;6.72;;;4.40;;
73951;SDS011;62304;47.662;18.324;2023-05-07T14:19:03;6.77;;;4.50;;
73951;SDS011;62304;47.662;18.324;2023-05-07T14:22:06;5.57;;;4.03;;
73951;SDS011;62304;47.662;18.324;2023-05-07T14:25:09;7.30;;;4.28;;
73951;SDS011;62304;47.662;18.324;2023-05-07T14:28:12;6.10;;;3.62;;
73951;SDS011;62304;47.662;18.324;2023-05-07T14:31:15;7.30;;;3.70;;
73951;SDS011;62304;47.662;18.324;2023-05-07T14:34:18;5.73;;;3.03;;
73951;SDS011;62304;47.662;18.324;2023-05-07T14:37:21;5.50;;;3.53;;
73951;SDS011;62304;47.662;18.324;2023-05-07T14:40:26;6.80;;;4.05;;
73951;SDS011;62304;47.662;18.324;2023-05-07T14:43:29;7.40;;;3.65;;
73951;SDS011;62304;47.662;18.324;2023-05-07T14:46:32;6.15;;;3.40;;
73951;SDS011;62304;47.662;18.324;2023-05-07T14:49:35;5.10;;;3.13;;
73951;SDS011;62304;47.662;18.324;2023-05-07T14:52:39;5.43;;;3.30;;
73951;SDS011;62304;47.662;18.324;2023-05-07T14:55:41;5.45;;;3.40;;
73951;SDS011;62304;47.662;18.324;2023-05-07T14:58:45;5.28;;;2.70;;
73951;SDS011;62304;47.662;18.324;2023-05-07T15:01:49;5.53;;;3.00;;
73951;SDS011;62304;47.662;18.324;2023-05-07T15:04:52;4.57;;;2.40;;
73951;SDS011;62304;47.662;18.324;2023-05-07T15:07:55;4.63;;;2.80;;
73951;SDS011;62304;47.662;18.324;2023-05-07T15:10:59;7.43;;;2.87;;
73951;SDS011;62304;47.662;18.324;2023-05-07T15:14:01;5.18;;;2.80;;
73951;SDS011;62304;47.662;18.324;2023-05-07T15:17:04;4.55;;;2.37;;
73951;SDS011;62304;47.662;18.324;2023-05-07T15:20:07;5.80;;;2.43;;
73951;SDS011;62304;47.662;18.324;2023-05-07T15:23:10;4.27;;;2.50;;
73951;SDS011;62304;47.662;18.324;2023-05-07T15:26:17;4.18;;;2.15;;
73951;SDS011;62304;47.662;18.324;2023-05-07T15:29:21;5.35;;;2.28;;
73951;SDS011;62304;47.662;18.324;2023-05-07T15:32:23;4.55;;;2.25;;
73951;SDS011;62304;47.662;18.324;2023-05-07T15:35:27;5.23;;;2.63;;
73951;SDS011;62304;47.662;18.324;2023-05-07T15:38:30;4.43;;;2.60;;
73951;SDS011;62304;47.662;18.324;2023-05-07T15:41:33;4.47;;;2.60;;
73951;SDS011;62304;47.662;18.324;2023-05-07T15:44:36;4.78;;;2.60;;
73951;SDS011;62304;47.662;18.324;2023-05-07T15:47:39;6.10;;;2.47;;
73951;SDS011;62304;47.662;18.324;2023-05-07T15:50:43;4.57;;;2.50;;
73951;SDS011;62304;47.662;18.324;2023-05-07T15:53:47;3.80;;;2.37;;
73951;SDS011;62304;47.662;18.324;2023-05-07T15:56:49;4.35;;;2.17;;
73951;SDS011;62304;47.662;18.324;2023-05-07T15:59:53;5.93;;;2.45;;
73951;SDS011;62304;47.662;18.324;2023-05-07T16:02:55;4.32;;;2.45;;
73951;SDS011;62304;47.662;18.324;2023-05-07T16:05:58;4.30;;;2.30;;
73951;SDS011;62304;47.662;18.324;2023-05-07T16:09:04;7.03;;;2.47;;
73951;SDS011;62304;47.662;18.324;2023-05-07T16:12:07;4.65;;;2.30;;
73951;SDS011;62304;47.662;18.324;2023-05-07T16:15:10;3.85;;;1.75;;
73951;SDS011;62304;47.662;18.324;2023-05-07T16:18:14;4.03;;;1.85;;
73951;SDS011;62304;47.662;18.324;2023-05-07T16:21:17;7.40;;;1.70;;
73951;SDS011;62304;47.662;18.324;2023-05-07T16:24:20;4.03;;;1.83;;
73951;SDS011;62304;47.662;18.324;2023-05-07T16:27:23;4.50;;;1.80;;
73951;SDS011;62304;47.662;18.324;2023-05-07T16:30:26;4.97;;;2.10;;
73951;SDS011;62304;47.662;18.324;2023-05-07T16:33:28;5.00;;;1.83;;
73951;SDS011;62304;47.662;18.324;2023-05-07T16:36:32;5.03;;;2.50;;
73951;SDS011;62304;47.662;18.324;2023-05-07T16:39:35;5.63;;;2.40;;
73951;SDS011;62304;47.662;18.324;2023-05-07T16:42:39;4.75;;;2.42;;
73951;SDS011;62304;47.662;18.324;2023-05-07T16:45:43;5.75;;;2.37;;
73951;SDS011;62304;47.662;18.324;2023-05-07T16:48:46;5.00;;;2.20;;
73951;SDS011;62304;47.662;18.324;2023-05-07T16:51:49;5.83;;;2.60;;
73951;SDS011;62304;47.662;18.324;2023-05-07T16:54:52;12.47;;;3.17;;
73951;SDS011;62304;47.662;18.324;2023-05-07T16:57:59;5.72;;;2.90;;
73951;SDS011;62304;47.662;18.324;2023-05-07T17:01:02;8.20;;;3.00;;
73951;SDS011;62304;47.662;18.324;2023-05-07T17:04:05;5.15;;;2.55;;
73951;SDS011;62304;47.662;18.324;2023-05-07T17:07:08;5.00;;;2.63;;
73951;SDS011;62304;47.662;18.324;2023-05-07T17:10:11;5.07;;;2.67;;
73951;SDS011;62304;47.662;18.324;2023-05-07T17:13:14;5.05;;;2.30;;
73951;SDS011;62304;47.662;18.324;2023-05-07T17:16:17;5.65;;;2.15;;
73951;SDS011;62304;47.662;18.324;2023-05-07T17:19:20;4.45;;;2.28;;
73951;SDS011;62304;47.662;18.324;2023-05-07T17:22:24;4.40;;;2.27;;
73951;SDS011;62304;47.662;18.324;2023-05-07T17:25:28;4.67;;;2.17;;
73951;SDS011;62304;47.662;18.324;2023-05-07T17:28:33;5.05;;;2.33;;
73951;SDS011;62304;47.662;18.324;2023-05-07T17:31:36;5.87;;;2.72;;
73951;SDS011;62304;47.662;18.324;2023-05-07T17:34:39;5.35;;;2.53;;
73951;SDS011;62304;47.662;18.324;2023-05-07T17:37:42;5.80;;;2.70;;
73951;SDS011;62304;47.662;18.324;2023-05-07T17:40:53;6.57;;;2.50;;
73951;SDS011;62304;47.662;18.324;2023-05-07T17:43:57;4.97;;;2.67;;
73951;SDS011;62304;47.662;18.324;2023-05-07T17:46:59;5.15;;;2.58;;
73951;SDS011;62304;47.662;18.324;2023-05-07T17:50:03;5.45;;;3.12;;
73951;SDS011;62304;47.662;18.324;2023-05-07T17:53:11;4.93;;;2.90;;
73951;SDS011;62304;47.662;18.324;2023-05-07T17:56:15;4.60;;;2.50;;
73951;SDS011;62304;47.662;18.324;2023-05-07T17:59:18;5.07;;;2.53;;
73951;SDS011;62304;47.662;18.324;2023-05-07T18:02:21;5.12;;;2.87;;
73951;SDS011;62304;47.662;18.324;2023-05-07T18:05:25;5.85;;;3.30;;